Etusivu
METAR-TAF:

METAR-TAF

Lentoasemat :

Sofian lentoasema

Sofia, Bulgaria

Leveyspiiri: 42-39N, Pituuspiiri: 023-23E, korkeus merenpinnasta: 586 m

Tämänhetkinen sää

Tämä raportti tehtiin 22 minuuttia sitten, kello 13.30 UTC
Tuuli 15 kn lännestä/luoteesta, vaihdellen lännen ja luoteen välillä
Lämpötila 17°C
Kosteus 34%
Ilmanpaine 1018 hPa
Näkyvyys 10 km tai enemmän
ei pilviä alle 1500 m:ssä eikä cumulonimbus-pilviä

METAR: LBSF 181330Z 29015KT 260V320 CAVOK 17/01 Q1018 NOSIG

Aika: 15:52 (13:52 UTC)

Sääennuste

Tämä raportti tehtiin 2 tuntia ja 52 minuuttia sitten, kello 11.00 UTC
Ennuste voimassa 18. päivästä klo 12 UTC - 19. päivään klo 12 UTC
Tuuli 10 kn lännestä/luoteesta
Näkyvyys 10 km tai enemmän
ei pilviä alle 1500 m:ssä eikä cumulonimbus-pilviä

TAF: LBSF 181100Z 1812/1912 29010KT CAVOK

Säähavainnot ja -ennusteet yli 4000 lentoasemalta (METAR- ja TAF-raportit).

Käytössä olevat sääasemat on merkitty karttaan keltaisilla ja punaisilla pisteillä.

Aseta hiiri pisteen päälle nähdäksesi sääaseman nimen.

Klikkaa sitten nähdäksesi säähavainnot ja -ennusteet.

Kartan vaihtaminen: klikkaa mustalla rastilla varustettuja vihreitä pisteitä, niin voit zoomata sisään; viivalla varustettua vihreää pistettä, niin voit zoomata ulos tai vihreitä nuolia, niin pääset viereisille kartoille.


METAR-TAF: